EZY37PL EGNS-EGKK
Flight info
| Callsign | EZY37PL |
|---|---|
| Flight time | N/A |
| Altitude | 37000 |
| Route | TIMIS Q39 NOMSU UQ4 WAL L151 DISIT |
| Aircraft | A20N/M-SDE2E3FGHIJ1RWXYZ/LB1 |
Departure
| Time | 2026-04-11 08:20 |
|---|---|
| Airport | Isle of Man Airport (EGNS) |
Arrival
| Time | N/A |
|---|---|
| Airport | London Gatwick Airport (EGKK) |
| Time | Latitude | Longitude | Altitude | Speed | Heading |
|---|---|---|---|---|---|
| 2026-04-11 08:02 | 54.08713 | -4.63205 | 39 ft | 0 kts | 44° |
| 2026-04-11 08:09 | 54.08711 | -4.63209 | 40 ft | 1 kts | 44° |
| 2026-04-11 08:10 | 54.08706 | -4.63218 | 40 ft | 1 kts | 44° |
| 2026-04-11 08:10 | 54.08700 | -4.63227 | 40 ft | 1 kts | 52° |
| 2026-04-11 08:10 | 54.08695 | -4.63237 | 40 ft | 1 kts | 71° |
| 2026-04-11 08:10 | 54.08693 | -4.63250 | 38 ft | 1 kts | 92° |
| 2026-04-11 08:11 | 54.08694 | -4.63263 | 36 ft | 1 kts | 116° |
| 2026-04-11 08:11 | 54.08697 | -4.63274 | 40 ft | 1 kts | 139° |
| 2026-04-11 08:11 | 54.08698 | -4.63275 | 40 ft | 0 kts | 139° |
| 2026-04-11 08:14 | 54.08692 | -4.63268 | 36 ft | 2 kts | 139° |
| 2026-04-11 08:14 | 54.08668 | -4.63220 | 40 ft | 10 kts | 124° |
| 2026-04-11 08:14 | 54.08613 | -4.63107 | 39 ft | 12 kts | 135° |
| 2026-04-11 08:14 | 54.08550 | -4.63030 | 39 ft | 11 kts | 162° |
| 2026-04-11 08:15 | 54.08489 | -4.63004 | 38 ft | 0 kts | 167° |
| 2026-04-11 08:15 | 54.08470 | -4.62997 | 38 ft | 8 kts | 168° |
| 2026-04-11 08:15 | 54.08430 | -4.62974 | 37 ft | 0 kts | 143° |
| 2026-04-11 08:15 | 54.08425 | -4.62907 | 37 ft | 11 kts | 74° |
| 2026-04-11 08:16 | 54.08440 | -4.62763 | 38 ft | 14 kts | 79° |
| 2026-04-11 08:16 | 54.08461 | -4.62590 | 39 ft | 16 kts | 77° |
| 2026-04-11 08:16 | 54.08488 | -4.62391 | 40 ft | 18 kts | 78° |
| 2026-04-11 08:16 | 54.08514 | -4.62177 | 36 ft | 20 kts | 78° |
| 2026-04-11 08:17 | 54.08542 | -4.61954 | 32 ft | 16 kts | 77° |
| 2026-04-11 08:17 | 54.08567 | -4.61745 | 29 ft | 20 kts | 78° |
| 2026-04-11 08:17 | 54.08598 | -4.61509 | 30 ft | 19 kts | 71° |
| 2026-04-11 08:17 | 54.08628 | -4.61303 | 23 ft | 19 kts | 78° |
| 2026-04-11 08:18 | 54.08650 | -4.61130 | 21 ft | 14 kts | 77° |
| 2026-04-11 08:18 | 54.08665 | -4.61012 | 20 ft | 0 kts | 78° |
| 2026-04-11 08:18 | 54.08669 | -4.60963 | 19 ft | 13 kts | 84° |
| 2026-04-11 08:18 | 54.08642 | -4.60809 | 18 ft | 15 kts | 128° |
| 2026-04-11 08:19 | 54.08569 | -4.60771 | 15 ft | 13 kts | 169° |
| 2026-04-11 08:19 | 54.08518 | -4.60863 | 16 ft | 12 kts | 263° |
| 2026-04-11 08:19 | 54.08511 | -4.60932 | 17 ft | 0 kts | 259° |
| 2026-04-11 08:19 | 54.08501 | -4.61023 | 18 ft | 38 kts | 258° |
| 2026-04-11 08:20 | 54.08387 | -4.61921 | 29 ft | 114 kts | 257° |
| 2026-04-11 08:20 | 54.08226 | -4.63430 | 434 ft | 134 kts | 256° |
| 2026-04-11 08:20 | 54.08075 | -4.65069 | 1124 ft | 147 kts | 253° |
| 2026-04-11 08:20 | 54.07890 | -4.66844 | 1870 ft | 160 kts | 253° |
| 2026-04-11 08:21 | 54.07545 | -4.68690 | 2570 ft | 166 kts | 236° |
| 2026-04-11 08:21 | 54.06805 | -4.70232 | 3292 ft | 174 kts | 220° |
| 2026-04-11 08:21 | 54.05823 | -4.71596 | 3928 ft | 192 kts | 229° |
| 2026-04-11 08:21 | 54.04786 | -4.73195 | 4512 ft | 214 kts | 208° |
| 2026-04-11 08:22 | 54.03246 | -4.73693 | 5109 ft | 242 kts | 179° |
| 2026-04-11 08:22 | 54.01626 | -4.72661 | 6015 ft | 260 kts | 150° |
| 2026-04-11 08:22 | 54.00362 | -4.70340 | 6955 ft | 276 kts | 131° |
| 2026-04-11 08:22 | 53.99278 | -4.67617 | 7896 ft | 280 kts | 132° |
| 2026-04-11 08:23 | 53.98083 | -4.64997 | 8850 ft | 281 kts | 137° |
| 2026-04-11 08:23 | 53.96744 | -4.62567 | 9755 ft | 283 kts | 142° |
| 2026-04-11 08:23 | 53.95299 | -4.60129 | 10224 ft | 306 kts | 139° |
| 2026-04-11 08:23 | 53.93912 | -4.57182 | 10558 ft | 333 kts | 130° |
| 2026-04-11 08:24 | 53.92585 | -4.53878 | 11217 ft | 342 kts | 130° |
| 2026-04-11 08:24 | 53.91233 | -4.50528 | 12047 ft | 346 kts | 129° |
| 2026-04-11 08:24 | 53.89859 | -4.47137 | 12853 ft | 351 kts | 129° |
| 2026-04-11 08:24 | 53.88467 | -4.43710 | 13667 ft | 355 kts | 130° |
| 2026-04-11 08:25 | 53.87071 | -4.40276 | 14579 ft | 352 kts | 130° |
| 2026-04-11 08:25 | 53.85688 | -4.36877 | 15500 ft | 351 kts | 130° |
| 2026-04-11 08:25 | 53.84299 | -4.33471 | 16333 ft | 352 kts | 131° |
| 2026-04-11 08:25 | 53.82905 | -4.30057 | 17182 ft | 352 kts | 131° |
| 2026-04-11 08:26 | 53.81529 | -4.26692 | 17981 ft | 353 kts | 131° |
| 2026-04-11 08:26 | 53.80106 | -4.23217 | 18592 ft | 357 kts | 132° |
| 2026-04-11 08:26 | 53.78707 | -4.19806 | 19184 ft | 360 kts | 133° |
| 2026-04-11 08:26 | 53.77274 | -4.16308 | 19780 ft | 362 kts | 135° |